Time;durP1;ratioP1;P1;durP2;ratioP2;P2;SDS_P1;SDS_P2;PMS_P1;PMS_P2;Temp;Humidity;BMP_temperature;BMP_pressure;BME280_temperature;BME280_humidity;BME280_pressure;Samples;Min_cycle;Max_cycle;Signal;HPM_P1;HPM_P2
2022/01/05 00:00:53;;;;;;;3.27;2.10;;;;;;;;;;4994505;28;20715;-57
2022/01/05 00:03:19;;;;;;;8.73;2.90;;;;;;;;;;4998915;28;20754;-57
2022/01/05 00:05:45;;;;;;;5.27;2.50;;;;;;;;;;4988949;28;20245;-57
2022/01/05 00:08:12;;;;;;;8.87;3.07;;;;;;;;;;4993166;28;20237;-56
2022/01/05 00:10:38;;;;;;;8.73;2.53;;;;;;;;;;4989935;28;20237;-57
2022/01/05 00:13:04;;;;;;;4.40;2.77;;;;;;;;;;4991507;28;20707;-57
2022/01/05 00:15:30;;;;;;;5.30;2.50;;;;;;;;;;4999275;28;20223;-57
2022/01/05 00:17:56;;;;;;;6.37;2.60;;;;;;;;;;5007245;28;20247;-57
2022/01/05 00:20:23;;;;;;;6.07;2.90;;;;;;;;;;4998622;28;20922;-58
2022/01/05 00:22:49;;;;;;;6.07;2.50;;;;;;;;;;5000411;28;20227;-57
2022/01/05 00:25:15;;;;;;;3.87;2.40;;;;;;;;;;5003730;28;20238;-57
2022/01/05 00:27:40;;;;;;;2.87;2.33;;;;;;;;;;5006486;28;21006;-56
2022/01/05 00:30:07;;;;;;;6.07;2.80;;;;;;;;;;4995724;28;20627;-57
2022/01/05 00:32:33;;;;;;;4.20;2.70;;;;;;;;;;5009758;28;20634;-57
2022/01/05 00:34:59;;;;;;;5.30;2.93;;;;;;;;;;5008803;28;20787;-57
2022/01/05 00:37:25;;;;;;;4.20;2.77;;;;;;;;;;5018040;28;20266;-57
2022/01/05 00:39:51;;;;;;;3.30;2.30;;;;;;;;;;5013877;28;20851;-57
2022/01/05 00:42:17;;;;;;;4.00;2.50;;;;;;;;;;5010227;28;20240;-57
2022/01/05 00:44:43;;;;;;;2.50;2.00;;;;;;;;;;5012002;28;20686;-57
2022/01/05 00:47:09;;;;;;;4.33;2.57;;;;;;;;;;5013289;28;20327;-57
2022/01/05 00:49:35;;;;;;;3.07;2.03;;;;;;;;;;5012760;28;20240;-57
2022/01/05 00:52:01;;;;;;;3.37;2.30;;;;;;;;;;5009568;28;20885;-57
2022/01/05 00:54:27;;;;;;;4.80;2.53;;;;;;;;;;4988450;28;20239;-58
2022/01/05 00:56:53;;;;;;;3.87;2.60;;;;;;;;;;5002194;28;20901;-58
2022/01/05 00:59:18;;;;;;;5.33;2.53;;;;;;;;;;5001914;28;20324;-57
2022/01/05 01:01:44;;;;;;;5.27;2.80;;;;;;;;;;5002025;28;20583;-57
2022/01/05 01:04:10;;;;;;;6.07;2.60;;;;;;;;;;5005006;28;20241;-57
2022/01/05 01:06:36;;;;;;;5.87;3.60;;;;;;;;;;5001461;28;20354;-57
2022/01/05 01:09:03;;;;;;;5.43;3.57;;;;;;;;;;5003278;28;20228;-57
2022/01/05 01:11:29;;;;;;;8.33;3.90;;;;;;;;;;4996344;28;20597;-58
2022/01/05 01:13:55;;;;;;;7.77;3.80;;;;;;;;;;4991387;28;20251;-57
2022/01/05 01:16:21;;;;;;;7.97;3.43;;;;;;;;;;4992712;28;20930;-58
2022/01/05 01:18:47;;;;;;;6.70;3.17;;;;;;;;;;4989666;28;20235;-57
2022/01/05 01:21:13;;;;;;;6.87;3.93;;;;;;;;;;4993025;28;20863;-57
2022/01/05 01:23:42;;;;;;;6.53;3.90;;;;;;;;;;5009166;28;20223;-57
2022/01/05 01:26:08;;;;;;;8.40;3.97;;;;;;;;;;5000216;28;20231;-57
2022/01/05 01:28:34;;;;;;;8.77;4.00;;;;;;;;;;5007202;28;20240;-57
2022/01/05 01:31:00;;;;;;;7.77;4.00;;;;;;;;;;4996010;28;20475;-57
2022/01/05 01:33:25;;;;;;;7.53;4.63;;;;;;;;;;5006790;28;20224;-58
2022/01/05 01:35:51;;;;;;;5.50;4.20;;;;;;;;;;5005878;28;20231;-57
2022/01/05 01:38:17;;;;;;;6.23;4.33;;;;;;;;;;5008642;28;20227;-57
2022/01/05 01:40:43;;;;;;;10.37;4.50;;;;;;;;;;5004496;28;20693;-57
2022/01/05 01:43:09;;;;;;;6.47;4.23;;;;;;;;;;5006086;28;20258;-57
2022/01/05 01:45:35;;;;;;;6.43;3.73;;;;;;;;;;5008127;28;20672;-58
2022/01/05 01:48:01;;;;;;;10.70;4.20;;;;;;;;;;5006618;28;20826;-57
2022/01/05 01:50:27;;;;;;;6.73;4.13;;;;;;;;;;5002523;28;21102;-57
2022/01/05 01:52:53;;;;;;;9.77;3.90;;;;;;;;;;5003981;28;20732;-57
2022/01/05 01:55:20;;;;;;;7.27;3.63;;;;;;;;;;4991940;28;20236;-57
2022/01/05 01:57:46;;;;;;;6.90;4.50;;;;;;;;;;4988877;28;20228;-58
2022/01/05 02:00:13;;;;;;;7.20;4.50;;;;;;;;;;4991768;28;20310;-58
2022/01/05 02:02:39;;;;;;;10.57;5.07;;;;;;;;;;5007700;28;20810;-58
2022/01/05 02:05:05;;;;;;;10.57;5.37;;;;;;;;;;5012668;28;20224;-57
2022/01/05 02:07:31;;;;;;;8.73;5.67;;;;;;;;;;5002841;28;20235;-58
2022/01/05 02:09:57;;;;;;;9.03;6.00;;;;;;;;;;5010217;28;20240;-58
2022/01/05 02:12:26;;;;;;;10.23;6.17;;;;;;;;;;5003756;28;20972;-57
2022/01/05 02:14:52;;;;;;;9.90;6.50;;;;;;;;;;5003382;28;20269;-58
2022/01/05 02:17:22;;;;;;;9.00;6.47;;;;;;;;;;4990703;28;25687;-58
2022/01/05 02:19:48;;;;;;;10.80;6.70;;;;;;;;;;5012761;28;20247;-57
2022/01/05 02:22:14;;;;;;;13.30;6.70;;;;;;;;;;5004581;28;20260;-57
2022/01/05 02:24:46;;;;;;;9.37;6.10;;;;;;;;;;4999053;28;20248;-58
2022/01/05 02:27:12;;;;;;;9.47;5.87;;;;;;;;;;4999058;28;20260;-57
2022/01/05 02:29:38;;;;;;;12.63;6.00;;;;;;;;;;5004605;28;20327;-58
2022/01/05 02:32:04;;;;;;;13.13;6.30;;;;;;;;;;5004158;28;20267;-57
2022/01/05 02:34:30;;;;;;;9.77;5.80;;;;;;;;;;4996239;28;20236;-58
2022/01/05 02:36:56;;;;;;;12.17;5.53;;;;;;;;;;4999538;28;20283;-58
2022/01/05 02:39:22;;;;;;;12.77;6.30;;;;;;;;;;4995079;28;20827;-58
2022/01/05 02:41:49;;;;;;;12.00;5.47;;;;;;;;;;5003533;28;20281;-57
2022/01/05 02:44:15;;;;;;;11.07;5.10;;;;;;;;;;4983493;28;20243;-58
2022/01/05 02:46:40;;;;;;;11.17;4.50;;;;;;;;;;4994352;28;22538;-57
2022/01/05 02:49:06;;;;;;;12.30;4.90;;;;;;;;;;4998170;28;20237;-58
2022/01/05 02:51:32;;;;;;;9.87;4.30;;;;;;;;;;5016963;28;20314;-57
2022/01/05 02:53:58;;;;;;;11.47;4.50;;;;;;;;;;5000996;28;20329;-58
2022/01/05 02:56:24;;;;;;;9.40;4.23;;;;;;;;;;5012554;28;20236;-58
2022/01/05 02:58:50;;;;;;;9.73;3.93;;;;;;;;;;4993118;28;20254;-58
2022/01/05 03:01:16;;;;;;;10.13;4.00;;;;;;;;;;4993122;28;20268;-58
2022/01/05 03:03:42;;;;;;;10.83;4.50;;;;;;;;;;4989212;28;20368;-58
2022/01/05 03:06:08;;;;;;;10.50;3.47;;;;;;;;;;4994317;28;20233;-57
2022/01/05 03:08:34;;;;;;;13.37;4.07;;;;;;;;;;4991467;28;20302;-57
2022/01/05 03:11:00;;;;;;;10.90;4.20;;;;;;;;;;4989890;28;20757;-57
2022/01/05 03:13:26;;;;;;;11.07;3.53;;;;;;;;;;5004103;28;20242;-57
2022/01/05 03:15:52;;;;;;;8.00;3.90;;;;;;;;;;4993035;28;20285;-57
2022/01/05 03:18:18;;;;;;;14.57;4.30;;;;;;;;;;4999591;28;20230;-57
2022/01/05 03:20:46;;;;;;;9.57;3.77;;;;;;;;;;4981242;28;21997;-57
2022/01/05 03:23:13;;;;;;;13.83;3.30;;;;;;;;;;4993053;28;20236;-57
2022/01/05 03:25:40;;;;;;;14.70;3.70;;;;;;;;;;4980179;28;20228;-57
2022/01/05 03:28:06;;;;;;;11.43;3.47;;;;;;;;;;4997317;28;20258;-57
2022/01/05 03:30:33;;;;;;;10.70;3.53;;;;;;;;;;4985465;28;20291;-57
2022/01/05 03:35:25;;;;;;;10.80;4.00;;;;;;;;;;4989908;28;20236;-57
2022/01/05 03:37:51;;;;;;;10.93;3.80;;;;;;;;;;5001303;28;20246;-57
2022/01/05 03:40:17;;;;;;;7.83;3.30;;;;;;;;;;4995236;28;21112;-57
2022/01/05 03:42:43;;;;;;;17.23;3.63;;;;;;;;;;5002903;28;20303;-58
2022/01/05 03:45:09;;;;;;;14.47;3.80;;;;;;;;;;4995643;28;20239;-58
2022/01/05 03:47:35;;;;;;;14.97;3.70;;;;;;;;;;5004242;28;20336;-57
2022/01/05 03:50:01;;;;;;;10.37;3.30;;;;;;;;;;4999677;28;20257;-57
2022/01/05 03:52:27;;;;;;;11.97;3.67;;;;;;;;;;4993343;28;21884;-57
2022/01/05 03:54:53;;;;;;;13.57;3.83;;;;;;;;;;4987357;28;20711;-58
2022/01/05 03:57:19;;;;;;;10.17;3.63;;;;;;;;;;4991338;28;20244;-57
2022/01/05 03:59:45;;;;;;;11.10;3.80;;;;;;;;;;4995219;28;20241;-58
2022/01/05 04:02:11;;;;;;;10.47;3.67;;;;;;;;;;5003209;28;20228;-57
2022/01/05 04:04:37;;;;;;;10.43;3.33;;;;;;;;;;4999990;28;20827;-57
2022/01/05 04:07:03;;;;;;;13.40;3.50;;;;;;;;;;5004377;28;20259;-58
2022/01/05 04:09:29;;;;;;;13.00;3.77;;;;;;;;;;4993858;28;20804;-57
2022/01/05 04:11:55;;;;;;;11.03;3.60;;;;;;;;;;4987288;28;20262;-58
2022/01/05 04:14:21;;;;;;;7.17;3.10;;;;;;;;;;4987249;28;20231;-58
2022/01/05 04:16:47;;;;;;;12.43;3.40;;;;;;;;;;4984404;28;20264;-58
2022/01/05 04:19:13;;;;;;;12.70;3.20;;;;;;;;;;4992821;28;20260;-57
2022/01/05 04:21:39;;;;;;;10.10;3.50;;;;;;;;;;4984071;28;20944;-58
2022/01/05 04:24:05;;;;;;;12.77;3.27;;;;;;;;;;4996419;28;20228;-57
2022/01/05 04:26:31;;;;;;;9.30;3.20;;;;;;;;;;4986105;28;20278;-57
2022/01/05 04:28:57;;;;;;;9.70;3.20;;;;;;;;;;4981319;28;20228;-57
2022/01/05 04:31:23;;;;;;;13.30;3.80;;;;;;;;;;4985385;28;20335;-57
2022/01/05 04:33:49;;;;;;;9.03;3.10;;;;;;;;;;4995201;28;20266;-58
2022/01/05 04:36:15;;;;;;;12.17;3.63;;;;;;;;;;4986394;28;20391;-57
2022/01/05 04:38:41;;;;;;;9.73;3.03;;;;;;;;;;4993953;28;20233;-57
2022/01/05 04:41:07;;;;;;;7.63;3.20;;;;;;;;;;4995759;28;20267;-57
2022/01/05 04:43:33;;;;;;;16.50;3.80;;;;;;;;;;4994320;28;20336;-58
2022/01/05 04:45:59;;;;;;;13.97;3.63;;;;;;;;;;4990895;28;20247;-57
2022/01/05 04:48:25;;;;;;;11.50;3.70;;;;;;;;;;5003103;28;20244;-57
2022/01/05 04:50:51;;;;;;;10.07;4.00;;;;;;;;;;4994251;28;20228;-58
2022/01/05 04:53:17;;;;;;;12.70;3.97;;;;;;;;;;5001484;28;20243;-57
2022/01/05 04:55:43;;;;;;;10.83;3.67;;;;;;;;;;5002695;28;20733;-58
2022/01/05 04:58:09;;;;;;;12.27;3.77;;;;;;;;;;5021780;28;20622;-57
2022/01/05 05:00:35;;;;;;;12.30;4.00;;;;;;;;;;5013771;28;20239;-57
2022/01/05 05:03:00;;;;;;;9.77;3.87;;;;;;;;;;5018599;28;20247;-58
2022/01/05 05:05:26;;;;;;;11.83;3.90;;;;;;;;;;5018317;28;20231;-57
2022/01/05 05:07:52;;;;;;;11.77;3.60;;;;;;;;;;5017892;28;20236;-58
2022/01/05 05:10:18;;;;;;;11.10;3.43;;;;;;;;;;5017729;28;20255;-57
2022/01/05 05:12:44;;;;;;;11.23;3.70;;;;;;;;;;4997141;28;20232;-57
2022/01/05 05:15:10;;;;;;;9.20;3.97;;;;;;;;;;5012694;28;20242;-58
2022/01/05 05:17:36;;;;;;;16.40;4.27;;;;;;;;;;5008995;28;20655;-58
2022/01/05 05:20:03;;;;;;;10.67;3.37;;;;;;;;;;4998054;28;20598;-57
2022/01/05 05:22:29;;;;;;;12.50;3.63;;;;;;;;;;4996665;28;20241;-58
2022/01/05 05:24:55;;;;;;;13.00;3.77;;;;;;;;;;4997235;28;20719;-57
2022/01/05 05:27:21;;;;;;;11.23;3.43;;;;;;;;;;4992283;28;20227;-57
2022/01/05 05:29:47;;;;;;;11.10;3.80;;;;;;;;;;4993939;28;20236;-57
2022/01/05 05:32:13;;;;;;;10.40;3.60;;;;;;;;;;4976274;28;20762;-57
2022/01/05 05:34:39;;;;;;;11.20;3.47;;;;;;;;;;4989415;28;20271;-57
2022/01/05 05:37:05;;;;;;;8.33;3.50;;;;;;;;;;5004559;28;20319;-57
2022/01/05 05:39:31;;;;;;;11.27;3.83;;;;;;;;;;4994677;28;20247;-57
2022/01/05 05:41:57;;;;;;;11.37;3.60;;;;;;;;;;5001154;28;20233;-57
2022/01/05 05:44:23;;;;;;;11.60;3.43;;;;;;;;;;5011080;28;20235;-58
2022/01/05 05:46:49;;;;;;;11.90;3.67;;;;;;;;;;5005692;28;20230;-57
2022/01/05 05:49:15;;;;;;;12.83;3.47;;;;;;;;;;5010985;28;20311;-57
2022/01/05 05:51:41;;;;;;;13.20;3.50;;;;;;;;;;5012208;28;20871;-57
2022/01/05 05:54:07;;;;;;;12.97;3.23;;;;;;;;;;5002542;28;20700;-57
2022/01/05 05:56:33;;;;;;;12.27;3.30;;;;;;;;;;5005398;28;20236;-57
2022/01/05 05:58:59;;;;;;;13.33;3.80;;;;;;;;;;5020222;28;20235;-58
2022/01/05 06:01:25;;;;;;;12.20;3.47;;;;;;;;;;5016094;28;20239;-58
2022/01/05 06:03:51;;;;;;;17.83;3.63;;;;;;;;;;5010351;28;20315;-57
2022/01/05 06:06:17;;;;;;;10.33;3.40;;;;;;;;;;5018163;28;20693;-56
2022/01/05 06:08:43;;;;;;;8.87;2.90;;;;;;;;;;5016203;28;20651;-57
2022/01/05 06:11:08;;;;;;;11.67;3.30;;;;;;;;;;5014974;28;20314;-57
2022/01/05 06:13:34;;;;;;;11.13;3.80;;;;;;;;;;5013750;28;20322;-58
2022/01/05 06:16:00;;;;;;;11.83;3.40;;;;;;;;;;5015300;28;20638;-57
2022/01/05 06:18:26;;;;;;;10.73;3.77;;;;;;;;;;5014349;28;20318;-57
2022/01/05 06:20:52;;;;;;;10.83;3.27;;;;;;;;;;5010838;28;20678;-57
2022/01/05 06:23:18;;;;;;;8.93;3.10;;;;;;;;;;5009963;28;20227;-57
2022/01/05 06:25:44;;;;;;;11.90;3.20;;;;;;;;;;4993360;28;20243;-57
2022/01/05 06:28:11;;;;;;;18.43;3.77;;;;;;;;;;4995668;28;20255;-57
2022/01/05 06:30:40;;;;;;;10.30;3.30;;;;;;;;;;5006334;28;20236;-57
2022/01/05 06:33:06;;;;;;;9.53;3.07;;;;;;;;;;5004685;28;20586;-57
2022/01/05 06:35:32;;;;;;;10.73;3.60;;;;;;;;;;4991973;28;20236;-57
2022/01/05 06:37:58;;;;;;;13.97;3.50;;;;;;;;;;4996068;28;20311;-56
2022/01/05 06:40:24;;;;;;;11.13;2.90;;;;;;;;;;4998899;28;20247;-58
2022/01/05 06:42:50;;;;;;;10.33;3.50;;;;;;;;;;4996021;28;20267;-58
2022/01/05 06:45:16;;;;;;;8.27;3.53;;;;;;;;;;5005496;28;20231;-58
2022/01/05 06:47:42;;;;;;;10.37;3.70;;;;;;;;;;4989113;28;20717;-58
2022/01/05 06:50:11;;;;;;;8.70;3.00;;;;;;;;;;4985757;28;20263;-58
2022/01/05 06:52:37;;;;;;;11.03;3.17;;;;;;;;;;4997301;28;20232;-58
2022/01/05 06:55:03;;;;;;;11.03;3.30;;;;;;;;;;5001985;28;20236;-57
2022/01/05 06:57:29;;;;;;;10.57;4.00;;;;;;;;;;4995454;28;20234;-57
2022/01/05 06:59:55;;;;;;;12.03;3.37;;;;;;;;;;4996446;28;20819;-57
2022/01/05 07:02:21;;;;;;;13.43;3.97;;;;;;;;;;5004878;28;20266;-57
2022/01/05 07:04:47;;;;;;;11.47;3.40;;;;;;;;;;5011140;28;20354;-57
2022/01/05 07:07:13;;;;;;;11.93;3.67;;;;;;;;;;5004773;28;20232;-58
2022/01/05 07:09:39;;;;;;;12.63;3.83;;;;;;;;;;5009415;28;20225;-57
2022/01/05 07:12:05;;;;;;;9.23;3.30;;;;;;;;;;5008283;28;20243;-58
2022/01/05 07:14:31;;;;;;;14.60;4.53;;;;;;;;;;5011985;28;20232;-57
2022/01/05 07:16:57;;;;;;;15.13;3.30;;;;;;;;;;5007110;28;20244;-58
2022/01/05 07:19:23;;;;;;;14.17;3.77;;;;;;;;;;5009468;28;20238;-58
2022/01/05 07:21:49;;;;;;;13.13;4.00;;;;;;;;;;5007128;28;21388;-57
2022/01/05 07:24:17;;;;;;;12.17;3.77;;;;;;;;;;5010712;28;20235;-57
2022/01/05 07:26:44;;;;;;;14.73;4.30;;;;;;;;;;5007979;28;20332;-57
2022/01/05 07:29:11;;;;;;;11.73;3.77;;;;;;;;;;5015819;28;20608;-57
2022/01/05 07:31:37;;;;;;;13.90;3.63;;;;;;;;;;5005393;28;20646;-57
2022/01/05 07:34:03;;;;;;;12.23;3.93;;;;;;;;;;4996804;28;20891;-57
2022/01/05 07:36:29;;;;;;;10.17;3.70;;;;;;;;;;4999607;28;20821;-57
2022/01/05 07:38:54;;;;;;;14.50;4.30;;;;;;;;;;4994483;28;20658;-57
2022/01/05 07:41:20;;;;;;;14.63;4.13;;;;;;;;;;4998378;28;20331;-57
2022/01/05 07:43:46;;;;;;;15.87;3.90;;;;;;;;;;5001796;28;22024;-58
2022/01/05 07:46:12;;;;;;;15.27;4.23;;;;;;;;;;5012439;28;20232;-58
2022/01/05 07:48:38;;;;;;;15.57;3.87;;;;;;;;;;5010374;28;20231;-57
2022/01/05 07:51:04;;;;;;;15.20;4.13;;;;;;;;;;5005367;28;20234;-57
2022/01/05 07:53:30;;;;;;;17.00;4.97;;;;;;;;;;5007369;28;20236;-57
2022/01/05 07:55:56;;;;;;;14.53;4.40;;;;;;;;;;5022568;28;20658;-56
2022/01/05 07:58:23;;;;;;;14.43;4.47;;;;;;;;;;5008909;28;20246;-57
2022/01/05 08:00:49;;;;;;;9.47;3.90;;;;;;;;;;5005916;28;20595;-57
2022/01/05 08:03:15;;;;;;;13.80;4.20;;;;;;;;;;5005929;28;20232;-56
2022/01/05 08:05:41;;;;;;;19.47;4.77;;;;;;;;;;4996253;28;20243;-56
2022/01/05 08:08:07;;;;;;;13.47;4.50;;;;;;;;;;4992658;28;20236;-56
2022/01/05 08:10:33;;;;;;;15.97;5.10;;;;;;;;;;4993550;28;20971;-56
2022/01/05 08:12:59;;;;;;;9.57;3.83;;;;;;;;;;5000308;28;20236;-57
2022/01/05 08:15:25;;;;;;;14.50;4.90;;;;;;;;;;5004949;28;20235;-57
2022/01/05 08:17:51;;;;;;;13.67;4.10;;;;;;;;;;5006529;28;20235;-56
2022/01/05 08:20:17;;;;;;;13.07;4.17;;;;;;;;;;5004871;28;20991;-56
2022/01/05 08:22:44;;;;;;;18.43;4.30;;;;;;;;;;5011983;28;20233;-57
2022/01/05 08:25:10;;;;;;;14.17;4.50;;;;;;;;;;5015276;28;20232;-57
2022/01/05 08:27:37;;;;;;;16.70;4.70;;;;;;;;;;5001891;28;20245;-57
2022/01/05 08:30:05;;;;;;;10.80;4.00;;;;;;;;;;5015216;28;20872;-56
2022/01/05 08:32:32;;;;;;;14.60;4.30;;;;;;;;;;5013684;28;20244;-57
2022/01/05 08:34:58;;;;;;;9.77;3.83;;;;;;;;;;5010025;28;20511;-57
2022/01/05 08:37:24;;;;;;;12.10;4.23;;;;;;;;;;5012266;28;20295;-57
2022/01/05 08:39:51;;;;;;;14.17;4.23;;;;;;;;;;5002266;28;20734;-57
2022/01/05 08:42:18;;;;;;;13.70;3.93;;;;;;;;;;5004081;28;20244;-57
2022/01/05 08:44:44;;;;;;;14.57;4.30;;;;;;;;;;5014532;28;20615;-57
2022/01/05 08:47:10;;;;;;;15.63;4.83;;;;;;;;;;5010032;28;20247;-57
2022/01/05 08:49:36;;;;;;;13.43;4.10;;;;;;;;;;5012321;28;20233;-57
2022/01/05 08:52:02;;;;;;;15.37;4.93;;;;;;;;;;4998297;28;20291;-57
2022/01/05 08:54:28;;;;;;;14.33;4.47;;;;;;;;;;4996417;28;20243;-57
2022/01/05 08:56:54;;;;;;;16.00;4.83;;;;;;;;;;5016184;28;20271;-57
2022/01/05 08:59:20;;;;;;;11.50;4.37;;;;;;;;;;5004520;28;20892;-57
2022/01/05 09:01:46;;;;;;;16.00;4.97;;;;;;;;;;5010922;28;20240;-57
2022/01/05 09:04:12;;;;;;;12.73;4.40;;;;;;;;;;5007221;28;20258;-57
2022/01/05 09:06:38;;;;;;;9.37;4.20;;;;;;;;;;5007250;28;20243;-57
2022/01/05 09:09:04;;;;;;;17.47;4.57;;;;;;;;;;5011516;28;20242;-57
2022/01/05 09:11:30;;;;;;;11.33;4.20;;;;;;;;;;5001428;28;20704;-57
2022/01/05 09:13:56;;;;;;;12.37;4.30;;;;;;;;;;5015377;28;20363;-57
2022/01/05 09:16:22;;;;;;;15.30;4.07;;;;;;;;;;5009209;28;20278;-58
2022/01/05 09:18:49;;;;;;;14.77;3.70;;;;;;;;;;4999964;28;20323;-57
2022/01/05 09:21:15;;;;;;;15.33;4.17;;;;;;;;;;4993690;28;20240;-57
2022/01/05 09:23:43;;;;;;;15.70;4.37;;;;;;;;;;4992698;28;20446;-57
2022/01/05 09:26:09;;;;;;;13.63;4.37;;;;;;;;;;4987258;28;20234;-57
2022/01/05 09:28:42;;;;;;;13.60;4.10;;;;;;;;;;4998507;28;20258;-58
2022/01/05 09:31:08;;;;;;;10.73;3.63;;;;;;;;;;4993949;28;20236;-57
2022/01/05 09:33:34;;;;;;;14.40;4.60;;;;;;;;;;4993547;28;20473;-58
2022/01/05 09:36:07;;;;;;;13.20;4.30;;;;;;;;;;4997747;28;20241;-57
2022/01/05 09:38:37;;;;;;;13.57;4.17;;;;;;;;;;4995777;28;20901;-57
2022/01/05 09:43:54;;;;;;;12.13;4.07;;;;;;;;;;4996034;28;20242;-58
2022/01/05 09:46:30;;;;;;;9.33;3.80;;;;;;;;;;5002970;28;20225;-57
2022/01/05 09:49:12;;;;;;;8.57;3.70;;;;;;;;;;5000536;28;20606;-57
2022/01/05 09:51:39;;;;;;;11.73;3.67;;;;;;;;;;4993572;28;20234;-57
2022/01/05 09:54:04;;;;;;;10.23;4.13;;;;;;;;;;4995878;28;20253;-58
2022/01/05 09:56:31;;;;;;;19.97;4.57;;;;;;;;;;5004841;28;20342;-57
2022/01/05 09:59:00;;;;;;;13.33;4.47;;;;;;;;;;5007189;28;20220;-57
2022/01/05 10:01:26;;;;;;;12.47;3.83;;;;;;;;;;5000792;28;20302;-57
2022/01/05 10:03:52;;;;;;;12.63;4.20;;;;;;;;;;5008108;28;20601;-57
2022/01/05 10:06:18;;;;;;;11.70;4.10;;;;;;;;;;5005761;28;20222;-57
2022/01/05 10:08:44;;;;;;;14.30;4.20;;;;;;;;;;5002529;28;20285;-57
2022/01/05 10:11:10;;;;;;;12.23;4.40;;;;;;;;;;5015802;28;20240;-57
2022/01/05 10:13:36;;;;;;;10.57;3.80;;;;;;;;;;5009484;28;20225;-57
2022/01/05 10:16:02;;;;;;;6.37;3.67;;;;;;;;;;5015457;28;20757;-57
2022/01/05 10:18:28;;;;;;;11.77;4.27;;;;;;;;;;5024311;28;20605;-57
2022/01/05 10:20:55;;;;;;;14.33;4.57;;;;;;;;;;5016791;28;20231;-57
2022/01/05 10:23:34;;;;;;;13.87;4.40;;;;;;;;;;5012250;28;20573;-57
2022/01/05 10:26:20;;;;;;;15.83;4.63;;;;;;;;;;5006254;28;20661;-57
2022/01/05 10:28:46;;;;;;;12.03;4.20;;;;;;;;;;5006058;28;20267;-57
2022/01/05 10:31:15;;;;;;;10.97;4.03;;;;;;;;;;5009870;28;20277;-57
2022/01/05 10:33:41;;;;;;;14.20;3.60;;;;;;;;;;5003308;28;20886;-58
2022/01/05 10:36:07;;;;;;;7.83;3.73;;;;;;;;;;4995657;28;20260;-57
2022/01/05 10:38:33;;;;;;;13.70;4.33;;;;;;;;;;5002309;28;20244;-57
2022/01/05 10:40:59;;;;;;;11.27;3.97;;;;;;;;;;5011252;28;20244;-57
2022/01/05 10:43:25;;;;;;;11.53;4.10;;;;;;;;;;5007306;28;20236;-57
2022/01/05 10:45:55;;;;;;;10.93;4.07;;;;;;;;;;5014857;28;20275;-56
2022/01/05 10:48:24;;;;;;;9.93;4.30;;;;;;;;;;5013814;28;20308;-56
2022/01/05 10:51:01;;;;;;;10.80;3.87;;;;;;;;;;5009366;28;20266;-56
2022/01/05 10:53:27;;;;;;;12.10;4.03;;;;;;;;;;5012676;28;20248;-56
2022/01/05 10:55:53;;;;;;;12.93;4.40;;;;;;;;;;4992070;28;20586;-57
2022/01/05 10:58:19;;;;;;;10.47;3.80;;;;;;;;;;4994469;28;20357;-56
2022/01/05 11:00:46;;;;;;;15.23;4.67;;;;;;;;;;4993486;28;20284;-56
2022/01/05 11:03:35;;;;;;;11.90;4.00;;;;;;;;;;4990827;28;20236;-57
2022/01/05 11:06:01;;;;;;;9.10;4.27;;;;;;;;;;5004521;28;20242;-57
2022/01/05 11:08:27;;;;;;;13.00;4.57;;;;;;;;;;4995395;28;20229;-56
2022/01/05 11:10:53;;;;;;;14.47;4.53;;;;;;;;;;4994875;28;21461;-57
2022/01/05 11:13:19;;;;;;;11.73;4.33;;;;;;;;;;4991798;28;20238;-56
2022/01/05 11:15:45;;;;;;;11.40;4.70;;;;;;;;;;4993829;28;20246;-57
2022/01/05 11:18:13;;;;;;;8.97;4.50;;;;;;;;;;4996594;28;20319;-56
2022/01/05 11:20:42;;;;;;;15.60;5.23;;;;;;;;;;5005396;28;20237;-56
2022/01/05 11:23:08;;;;;;;10.87;4.70;;;;;;;;;;5001892;28;20285;-57
2022/01/05 11:25:37;;;;;;;10.07;4.93;;;;;;;;;;5007027;28;20241;-58
2022/01/05 11:28:04;;;;;;;13.07;5.20;;;;;;;;;;5017885;28;20241;-55
2022/01/05 11:30:30;;;;;;;10.33;5.20;;;;;;;;;;5016948;28;20629;-58
2022/01/05 11:32:56;;;;;;;11.67;5.20;;;;;;;;;;5008132;28;20236;-58
2022/01/05 11:35:22;;;;;;;10.97;4.63;;;;;;;;;;5012567;28;20224;-58
2022/01/05 11:37:48;;;;;;;13.90;5.63;;;;;;;;;;5014268;28;20666;-58
2022/01/05 11:40:14;;;;;;;11.47;4.70;;;;;;;;;;5014030;28;20248;-58
2022/01/05 11:42:40;;;;;;;11.80;4.90;;;;;;;;;;5009118;28;20836;-58
2022/01/05 11:45:07;;;;;;;13.73;4.80;;;;;;;;;;5004978;28;20240;-58
2022/01/05 11:47:36;;;;;;;14.67;4.50;;;;;;;;;;5011861;28;20661;-57
2022/01/05 11:50:14;;;;;;;13.73;5.73;;;;;;;;;;5014240;28;20243;-58
2022/01/05 11:52:54;;;;;;;11.87;4.63;;;;;;;;;;5001450;28;20705;-57
2022/01/05 11:55:19;;;;;;;13.20;4.13;;;;;;;;;;5003106;28;20236;-58
2022/01/05 11:58:04;;;;;;;11.97;4.97;;;;;;;;;;4996106;28;21354;-57
2022/01/05 12:00:30;;;;;;;12.50;4.53;;;;;;;;;;5004965;28;20247;-58
2022/01/05 12:02:59;;;;;;;12.13;4.23;;;;;;;;;;4998872;28;20236;-58
2022/01/05 12:05:25;;;;;;;11.03;4.33;;;;;;;;;;5005025;28;20236;-58
2022/01/05 12:07:53;;;;;;;10.17;4.07;;;;;;;;;;4998895;28;20237;-58
2022/01/05 12:10:23;;;;;;;10.03;4.00;;;;;;;;;;4984748;28;20715;-59
2022/01/05 12:13:02;;;;;;;12.03;4.20;;;;;;;;;;4991233;28;20262;-58
2022/01/05 12:15:43;;;;;;;12.00;4.10;;;;;;;;;;4999281;28;20574;-58
2022/01/05 12:18:09;;;;;;;14.53;4.23;;;;;;;;;;5010585;28;20240;-58
2022/01/05 12:20:35;;;;;;;11.07;4.13;;;;;;;;;;5010558;28;20235;-58
2022/01/05 12:23:24;;;;;;;10.20;3.93;;;;;;;;;;5012692;28;20228;-58
2022/01/05 12:26:07;;;;;;;10.80;4.00;;;;;;;;;;5007686;28;20301;-57
2022/01/05 12:28:33;;;;;;;11.83;4.03;;;;;;;;;;5004565;28;20536;-58
2022/01/05 12:30:59;;;;;;;12.00;3.80;;;;;;;;;;5011564;28;20225;-58
2022/01/05 12:33:25;;;;;;;13.53;3.87;;;;;;;;;;4994495;28;20243;-57
2022/01/05 12:35:56;;;;;;;11.13;4.13;;;;;;;;;;5003688;28;20674;-57
2022/01/05 12:38:34;;;;;;;10.07;4.27;;;;;;;;;;5010040;28;20325;-58
2022/01/05 12:41:20;;;;;;;13.87;4.43;;;;;;;;;;5006686;28;20237;-58
2022/01/05 12:43:46;;;;;;;13.40;4.17;;;;;;;;;;4991110;28;20230;-57
2022/01/05 12:46:13;;;;;;;13.53;4.30;;;;;;;;;;5004891;28;20261;-57
2022/01/05 12:48:45;;;;;;;10.07;4.40;;;;;;;;;;5007678;28;20230;-58
2022/01/05 12:51:11;;;;;;;10.63;4.20;;;;;;;;;;5005594;28;20239;-58
2022/01/05 12:53:38;;;;;;;11.50;4.43;;;;;;;;;;5012857;28;20724;-57
2022/01/05 12:56:04;;;;;;;11.87;4.80;;;;;;;;;;5005173;28;20233;-58
2022/01/05 12:58:33;;;;;;;17.20;4.43;;;;;;;;;;5014444;28;20295;-58
2022/01/05 13:00:59;;;;;;;10.10;4.63;;;;;;;;;;5008966;28;20247;-58
2022/01/05 13:03:35;;;;;;;10.83;4.13;;;;;;;;;;5006662;28;20240;-57
2022/01/05 13:06:14;;;;;;;13.07;4.33;;;;;;;;;;5001103;28;20256;-58
2022/01/05 13:08:49;;;;;;;9.37;3.83;;;;;;;;;;5010490;28;20235;-58
2022/01/05 13:11:17;;;;;;;10.83;3.80;;;;;;;;;;5008972;28;20236;-58
2022/01/05 13:13:43;;;;;;;11.80;3.80;;;;;;;;;;5005869;28;20750;-57
2022/01/05 13:16:09;;;;;;;11.23;4.33;;;;;;;;;;5006583;28;20233;-58
2022/01/05 13:18:35;;;;;;;10.13;4.13;;;;;;;;;;4986583;28;20237;-58
2022/01/05 13:21:01;;;;;;;9.77;4.27;;;;;;;;;;5006581;28;20259;-57
2022/01/05 13:23:27;;;;;;;12.30;4.17;;;;;;;;;;5012822;28;20238;-57
2022/01/05 13:25:53;;;;;;;14.90;4.30;;;;;;;;;;5018316;28;20361;-58
2022/01/05 13:28:20;;;;;;;11.60;4.30;;;;;;;;;;5013051;28;20252;-58
2022/01/05 13:30:46;;;;;;;12.90;4.23;;;;;;;;;;5011686;28;20653;-58
2022/01/05 13:33:15;;;;;;;10.27;4.10;;;;;;;;;;5015055;28;21095;-57
2022/01/05 13:35:42;;;;;;;13.77;4.63;;;;;;;;;;5007373;28;20264;-57
2022/01/05 13:38:12;;;;;;;16.97;4.83;;;;;;;;;;5006470;28;20348;-57
2022/01/05 13:40:42;;;;;;;13.97;4.77;;;;;;;;;;5009944;28;20228;-57
2022/01/05 13:43:08;;;;;;;8.93;4.47;;;;;;;;;;5009733;28;20626;-57
2022/01/05 13:45:36;;;;;;;12.93;4.90;;;;;;;;;;5017086;28;20310;-58
2022/01/05 13:48:06;;;;;;;13.93;5.37;;;;;;;;;;5014653;28;20399;-57
2022/01/05 13:50:48;;;;;;;11.33;4.87;;;;;;;;;;5016128;28;20242;-58
2022/01/05 13:53:19;;;;;;;13.80;4.67;;;;;;;;;;5010115;28;20240;-58
2022/01/05 13:55:49;;;;;;;10.83;3.77;;;;;;;;;;5017228;28;20221;-58
2022/01/05 13:58:16;;;;;;;8.57;4.13;;;;;;;;;;5015222;28;20235;-58
2022/01/05 14:00:43;;;;;;;16.03;4.43;;;;;;;;;;5008765;28;20243;-58
2022/01/05 14:03:09;;;;;;;16.10;4.97;;;;;;;;;;5011432;28;20235;-58
2022/01/05 14:05:35;;;;;;;13.03;4.80;;;;;;;;;;5014510;28;20652;-58
2022/01/05 14:08:01;;;;;;;13.87;4.57;;;;;;;;;;5002234;28;20240;-59
2022/01/05 14:10:27;;;;;;;12.40;4.23;;;;;;;;;;5014365;28;20264;-58
2022/01/05 14:12:59;;;;;;;16.77;5.00;;;;;;;;;;5013860;28;20235;-58
2022/01/05 14:15:26;;;;;;;18.80;5.13;;;;;;;;;;5008702;28;20706;-58
2022/01/05 14:18:18;;;;;;;11.80;4.93;;;;;;;;;;5006993;28;21207;-58
2022/01/05 14:20:48;;;;;;;8.43;4.33;;;;;;;;;;5003035;28;20268;-58
2022/01/05 14:23:15;;;;;;;12.77;4.37;;;;;;;;;;5011076;28;20235;-58
2022/01/05 14:25:45;;;;;;;15.17;4.93;;;;;;;;;;5004360;28;20232;-58
2022/01/05 14:28:12;;;;;;;13.17;5.00;;;;;;;;;;4995039;28;25703;-58
2022/01/05 14:30:38;;;;;;;13.50;3.90;;;;;;;;;;5001679;28;20335;-58
2022/01/05 14:33:05;;;;;;;16.37;4.53;;;;;;;;;;5014986;28;20237;-59
2022/01/05 14:35:31;;;;;;;18.13;4.90;;;;;;;;;;4996039;28;20628;-58
2022/01/05 14:38:01;;;;;;;15.10;4.63;;;;;;;;;;4998748;28;20930;-58